sensor_id;sensor_type;location;lat;lon;timestamp;P1;durP1;ratioP1;P2;durP2;ratioP2
55063;SDS011;40963;52.168;21.296;2023-11-19T00:01:48;39.35;;;13.88;;
55063;SDS011;40963;52.168;21.296;2023-11-19T00:04:14;40.72;;;13.80;;
55063;SDS011;40963;52.168;21.296;2023-11-19T00:06:39;33.40;;;13.75;;
55063;SDS011;40963;52.168;21.296;2023-11-19T00:09:05;32.10;;;13.60;;
55063;SDS011;40963;52.168;21.296;2023-11-19T00:11:33;37.42;;;15.20;;
55063;SDS011;40963;52.168;21.296;2023-11-19T00:13:58;32.72;;;13.30;;
55063;SDS011;40963;52.168;21.296;2023-11-19T00:16:24;35.97;;;14.38;;
55063;SDS011;40963;52.168;21.296;2023-11-19T00:18:49;42.70;;;14.93;;
55063;SDS011;40963;52.168;21.296;2023-11-19T00:21:15;35.78;;;13.35;;
55063;SDS011;40963;52.168;21.296;2023-11-19T00:23:41;27.33;;;12.35;;
55063;SDS011;40963;52.168;21.296;2023-11-19T00:26:06;30.27;;;12.85;;
55063;SDS011;40963;52.168;21.296;2023-11-19T00:28:32;35.65;;;13.27;;
55063;SDS011;40963;52.168;21.296;2023-11-19T00:30:58;31.20;;;13.75;;
55063;SDS011;40963;52.168;21.296;2023-11-19T00:33:24;39.63;;;14.48;;
55063;SDS011;40963;52.168;21.296;2023-11-19T00:35:50;47.95;;;15.55;;
55063;SDS011;40963;52.168;21.296;2023-11-19T00:38:15;35.75;;;13.07;;
55063;SDS011;40963;52.168;21.296;2023-11-19T00:40:41;36.47;;;14.02;;
55063;SDS011;40963;52.168;21.296;2023-11-19T00:43:07;34.80;;;13.85;;
55063;SDS011;40963;52.168;21.296;2023-11-19T00:45:32;38.58;;;15.15;;
55063;SDS011;40963;52.168;21.296;2023-11-19T00:47:58;44.05;;;15.65;;
55063;SDS011;40963;52.168;21.296;2023-11-19T00:50:24;38.03;;;14.00;;
55063;SDS011;40963;52.168;21.296;2023-11-19T00:52:50;47.03;;;13.75;;
55063;SDS011;40963;52.168;21.296;2023-11-19T00:55:16;42.83;;;14.68;;
55063;SDS011;40963;52.168;21.296;2023-11-19T00:57:42;34.92;;;13.48;;
55063;SDS011;40963;52.168;21.296;2023-11-19T01:00:08;35.83;;;14.50;;
55063;SDS011;40963;52.168;21.296;2023-11-19T01:02:43;38.58;;;14.43;;
55063;SDS011;40963;52.168;21.296;2023-11-19T01:05:09;31.33;;;14.25;;
55063;SDS011;40963;52.168;21.296;2023-11-19T01:07:35;31.60;;;11.93;;
55063;SDS011;40963;52.168;21.296;2023-11-19T01:10:00;30.85;;;12.73;;
55063;SDS011;40963;52.168;21.296;2023-11-19T01:12:26;34.22;;;13.55;;
55063;SDS011;40963;52.168;21.296;2023-11-19T01:14:51;37.50;;;12.48;;
55063;SDS011;40963;52.168;21.296;2023-11-19T01:17:17;30.38;;;12.10;;
55063;SDS011;40963;52.168;21.296;2023-11-19T01:19:43;30.60;;;11.75;;
55063;SDS011;40963;52.168;21.296;2023-11-19T01:22:08;40.78;;;13.32;;
55063;SDS011;40963;52.168;21.296;2023-11-19T01:24:34;38.13;;;13.70;;
55063;SDS011;40963;52.168;21.296;2023-11-19T01:26:59;41.05;;;14.23;;
55063;SDS011;40963;52.168;21.296;2023-11-19T01:29:25;28.60;;;12.75;;
55063;SDS011;40963;52.168;21.296;2023-11-19T01:31:51;34.95;;;13.73;;
55063;SDS011;40963;52.168;21.296;2023-11-19T01:34:17;34.15;;;13.95;;
55063;SDS011;40963;52.168;21.296;2023-11-19T01:36:42;35.63;;;14.10;;
55063;SDS011;40963;52.168;21.296;2023-11-19T01:39:08;33.53;;;14.25;;
55063;SDS011;40963;52.168;21.296;2023-11-19T01:41:34;34.13;;;13.95;;
55063;SDS011;40963;52.168;21.296;2023-11-19T01:44:01;46.42;;;14.30;;
55063;SDS011;40963;52.168;21.296;2023-11-19T01:46:26;47.58;;;17.23;;
55063;SDS011;40963;52.168;21.296;2023-11-19T01:48:52;36.97;;;13.70;;
55063;SDS011;40963;52.168;21.296;2023-11-19T01:51:19;42.88;;;15.02;;
55063;SDS011;40963;52.168;21.296;2023-11-19T01:53:45;50.70;;;16.08;;
55063;SDS011;40963;52.168;21.296;2023-11-19T01:56:11;38.72;;;14.13;;
55063;SDS011;40963;52.168;21.296;2023-11-19T01:58:39;48.33;;;14.73;;
55063;SDS011;40963;52.168;21.296;2023-11-19T02:01:06;36.53;;;13.73;;
55063;SDS011;40963;52.168;21.296;2023-11-19T02:03:32;46.17;;;14.52;;
55063;SDS011;40963;52.168;21.296;2023-11-19T02:06:01;35.58;;;14.18;;
55063;SDS011;40963;52.168;21.296;2023-11-19T02:08:27;45.60;;;14.23;;
55063;SDS011;40963;52.168;21.296;2023-11-19T02:10:54;43.47;;;14.40;;
55063;SDS011;40963;52.168;21.296;2023-11-19T02:13:25;40.00;;;14.57;;
55063;SDS011;40963;52.168;21.296;2023-11-19T02:15:51;30.55;;;12.93;;
55063;SDS011;40963;52.168;21.296;2023-11-19T02:20:43;35.00;;;15.30;;
55063;SDS011;40963;52.168;21.296;2023-11-19T02:23:09;46.95;;;14.23;;
55063;SDS011;40963;52.168;21.296;2023-11-19T02:25:35;45.30;;;13.23;;
55063;SDS011;40963;52.168;21.296;2023-11-19T02:28:01;41.38;;;15.50;;
55063;SDS011;40963;52.168;21.296;2023-11-19T02:30:28;28.48;;;12.38;;
55063;SDS011;40963;52.168;21.296;2023-11-19T02:32:57;41.47;;;13.15;;
55063;SDS011;40963;52.168;21.296;2023-11-19T02:35:25;41.08;;;14.85;;
55063;SDS011;40963;52.168;21.296;2023-11-19T02:37:51;43.95;;;14.32;;
55063;SDS011;40963;52.168;21.296;2023-11-19T02:40:17;41.75;;;15.27;;
55063;SDS011;40963;52.168;21.296;2023-11-19T02:42:43;33.25;;;14.00;;
55063;SDS011;40963;52.168;21.296;2023-11-19T02:45:09;45.35;;;15.02;;
55063;SDS011;40963;52.168;21.296;2023-11-19T02:47:39;41.88;;;13.82;;
55063;SDS011;40963;52.168;21.296;2023-11-19T02:50:07;43.65;;;13.88;;
55063;SDS011;40963;52.168;21.296;2023-11-19T02:52:39;45.47;;;15.75;;
55063;SDS011;40963;52.168;21.296;2023-11-19T02:55:05;40.72;;;15.60;;
55063;SDS011;40963;52.168;21.296;2023-11-19T02:57:35;47.97;;;14.73;;
55063;SDS011;40963;52.168;21.296;2023-11-19T03:00:01;40.35;;;13.90;;
55063;SDS011;40963;52.168;21.296;2023-11-19T03:02:32;35.97;;;13.52;;
55063;SDS011;40963;52.168;21.296;2023-11-19T03:05:08;35.78;;;13.57;;
55063;SDS011;40963;52.168;21.296;2023-11-19T03:07:34;35.40;;;13.15;;
55063;SDS011;40963;52.168;21.296;2023-11-19T03:09:59;41.42;;;13.15;;
55063;SDS011;40963;52.168;21.296;2023-11-19T03:12:25;36.40;;;14.23;;
55063;SDS011;40963;52.168;21.296;2023-11-19T03:14:51;41.80;;;13.23;;
55063;SDS011;40963;52.168;21.296;2023-11-19T03:17:16;27.70;;;13.32;;
55063;SDS011;40963;52.168;21.296;2023-11-19T03:19:43;38.55;;;14.20;;
55063;SDS011;40963;52.168;21.296;2023-11-19T03:22:09;28.30;;;11.63;;
55063;SDS011;40963;52.168;21.296;2023-11-19T03:24:36;32.13;;;11.40;;
55063;SDS011;40963;52.168;21.296;2023-11-19T03:27:01;33.70;;;12.90;;
55063;SDS011;40963;52.168;21.296;2023-11-19T03:29:28;43.83;;;14.38;;
55063;SDS011;40963;52.168;21.296;2023-11-19T03:31:54;54.05;;;13.23;;
55063;SDS011;40963;52.168;21.296;2023-11-19T03:34:19;33.22;;;12.02;;
55063;SDS011;40963;52.168;21.296;2023-11-19T03:36:45;39.63;;;11.52;;
55063;SDS011;40963;52.168;21.296;2023-11-19T03:39:10;43.85;;;14.50;;
55063;SDS011;40963;52.168;21.296;2023-11-19T03:41:36;39.55;;;15.40;;
55063;SDS011;40963;52.168;21.296;2023-11-19T03:44:01;41.50;;;13.80;;
55063;SDS011;40963;52.168;21.296;2023-11-19T03:46:27;34.97;;;13.10;;
55063;SDS011;40963;52.168;21.296;2023-11-19T03:48:54;37.22;;;12.82;;
55063;SDS011;40963;52.168;21.296;2023-11-19T03:51:20;46.67;;;14.18;;
55063;SDS011;40963;52.168;21.296;2023-11-19T03:53:46;38.50;;;12.32;;
55063;SDS011;40963;52.168;21.296;2023-11-19T03:56:12;46.92;;;13.38;;
55063;SDS011;40963;52.168;21.296;2023-11-19T03:58:38;41.38;;;14.77;;
55063;SDS011;40963;52.168;21.296;2023-11-19T04:01:04;34.10;;;12.98;;
55063;SDS011;40963;52.168;21.296;2023-11-19T04:03:31;33.35;;;13.35;;
55063;SDS011;40963;52.168;21.296;2023-11-19T04:05:56;38.95;;;12.93;;
55063;SDS011;40963;52.168;21.296;2023-11-19T04:08:22;50.58;;;13.77;;
55063;SDS011;40963;52.168;21.296;2023-11-19T04:10:48;40.83;;;13.77;;
55063;SDS011;40963;52.168;21.296;2023-11-19T04:13:14;40.53;;;13.18;;
55063;SDS011;40963;52.168;21.296;2023-11-19T04:15:39;38.17;;;13.32;;
55063;SDS011;40963;52.168;21.296;2023-11-19T04:18:05;43.15;;;13.48;;
55063;SDS011;40963;52.168;21.296;2023-11-19T04:20:30;49.13;;;13.70;;
55063;SDS011;40963;52.168;21.296;2023-11-19T04:22:56;39.58;;;13.32;;
55063;SDS011;40963;52.168;21.296;2023-11-19T04:25:22;37.83;;;14.68;;
55063;SDS011;40963;52.168;21.296;2023-11-19T04:27:51;35.38;;;13.85;;
55063;SDS011;40963;52.168;21.296;2023-11-19T04:30:16;40.80;;;14.23;;
55063;SDS011;40963;52.168;21.296;2023-11-19T04:32:43;43.55;;;13.20;;
55063;SDS011;40963;52.168;21.296;2023-11-19T04:35:09;74.38;;;15.10;;
55063;SDS011;40963;52.168;21.296;2023-11-19T04:37:35;44.83;;;13.45;;
55063;SDS011;40963;52.168;21.296;2023-11-19T04:40:00;48.42;;;15.02;;
55063;SDS011;40963;52.168;21.296;2023-11-19T04:42:26;38.50;;;13.43;;
55063;SDS011;40963;52.168;21.296;2023-11-19T04:44:52;56.85;;;15.50;;
55063;SDS011;40963;52.168;21.296;2023-11-19T04:47:17;37.42;;;13.95;;
55063;SDS011;40963;52.168;21.296;2023-11-19T04:49:43;42.60;;;13.25;;
55063;SDS011;40963;52.168;21.296;2023-11-19T04:52:09;37.42;;;13.13;;
55063;SDS011;40963;52.168;21.296;2023-11-19T04:54:34;41.58;;;14.20;;
55063;SDS011;40963;52.168;21.296;2023-11-19T04:57:00;47.30;;;14.00;;
55063;SDS011;40963;52.168;21.296;2023-11-19T04:59:25;41.70;;;14.23;;
55063;SDS011;40963;52.168;21.296;2023-11-19T05:01:52;44.17;;;11.80;;
55063;SDS011;40963;52.168;21.296;2023-11-19T05:04:18;51.30;;;14.38;;
55063;SDS011;40963;52.168;21.296;2023-11-19T05:06:44;50.60;;;15.55;;
55063;SDS011;40963;52.168;21.296;2023-11-19T05:09:09;36.83;;;13.02;;
55063;SDS011;40963;52.168;21.296;2023-11-19T05:11:38;34.08;;;11.57;;
55063;SDS011;40963;52.168;21.296;2023-11-19T05:14:04;34.60;;;12.75;;
55063;SDS011;40963;52.168;21.296;2023-11-19T05:16:30;29.92;;;13.60;;
55063;SDS011;40963;52.168;21.296;2023-11-19T05:18:55;32.92;;;12.45;;
55063;SDS011;40963;52.168;21.296;2023-11-19T05:21:21;50.80;;;16.17;;
55063;SDS011;40963;52.168;21.296;2023-11-19T05:23:47;36.10;;;13.57;;
55063;SDS011;40963;52.168;21.296;2023-11-19T05:26:19;37.08;;;12.63;;
55063;SDS011;40963;52.168;21.296;2023-11-19T05:28:45;47.42;;;14.73;;
55063;SDS011;40963;52.168;21.296;2023-11-19T05:31:11;29.15;;;13.48;;
55063;SDS011;40963;52.168;21.296;2023-11-19T05:33:36;45.90;;;12.93;;
55063;SDS011;40963;52.168;21.296;2023-11-19T05:36:02;41.25;;;13.50;;
55063;SDS011;40963;52.168;21.296;2023-11-19T05:38:29;37.85;;;14.43;;
55063;SDS011;40963;52.168;21.296;2023-11-19T05:40:55;51.25;;;14.27;;
55063;SDS011;40963;52.168;21.296;2023-11-19T05:43:20;46.40;;;13.80;;
55063;SDS011;40963;52.168;21.296;2023-11-19T05:45:46;39.63;;;13.65;;
55063;SDS011;40963;52.168;21.296;2023-11-19T05:48:12;40.17;;;12.75;;
55063;SDS011;40963;52.168;21.296;2023-11-19T05:50:38;43.45;;;14.48;;
55063;SDS011;40963;52.168;21.296;2023-11-19T05:53:03;36.58;;;13.68;;
55063;SDS011;40963;52.168;21.296;2023-11-19T05:55:35;49.42;;;13.98;;
55063;SDS011;40963;52.168;21.296;2023-11-19T05:58:10;35.72;;;13.52;;
55063;SDS011;40963;52.168;21.296;2023-11-19T06:00:37;49.17;;;14.07;;
55063;SDS011;40963;52.168;21.296;2023-11-19T06:03:09;42.38;;;13.65;;
55063;SDS011;40963;52.168;21.296;2023-11-19T06:05:35;34.40;;;12.10;;
55063;SDS011;40963;52.168;21.296;2023-11-19T06:08:00;45.35;;;13.05;;
55063;SDS011;40963;52.168;21.296;2023-11-19T06:10:26;42.75;;;15.10;;
55063;SDS011;40963;52.168;21.296;2023-11-19T06:12:56;36.28;;;12.88;;
55063;SDS011;40963;52.168;21.296;2023-11-19T06:15:27;51.75;;;16.60;;
55063;SDS011;40963;52.168;21.296;2023-11-19T06:17:53;49.92;;;16.45;;
55063;SDS011;40963;52.168;21.296;2023-11-19T06:20:20;41.53;;;14.43;;
55063;SDS011;40963;52.168;21.296;2023-11-19T06:22:46;35.28;;;14.02;;
55063;SDS011;40963;52.168;21.296;2023-11-19T06:25:11;47.97;;;13.80;;
55063;SDS011;40963;52.168;21.296;2023-11-19T06:27:39;52.45;;;13.65;;
55063;SDS011;40963;52.168;21.296;2023-11-19T06:30:05;40.38;;;14.55;;
55063;SDS011;40963;52.168;21.296;2023-11-19T06:32:32;49.45;;;16.05;;
55063;SDS011;40963;52.168;21.296;2023-11-19T06:34:57;37.63;;;12.63;;
55063;SDS011;40963;52.168;21.296;2023-11-19T06:37:23;48.25;;;14.32;;
55063;SDS011;40963;52.168;21.296;2023-11-19T06:39:49;41.38;;;12.13;;
55063;SDS011;40963;52.168;21.296;2023-11-19T06:42:14;49.40;;;14.20;;
55063;SDS011;40963;52.168;21.296;2023-11-19T06:44:40;35.10;;;12.93;;
55063;SDS011;40963;52.168;21.296;2023-11-19T06:47:05;27.95;;;12.68;;
55063;SDS011;40963;52.168;21.296;2023-11-19T06:49:31;27.00;;;11.75;;
55063;SDS011;40963;52.168;21.296;2023-11-19T06:51:57;29.25;;;12.35;;
55063;SDS011;40963;52.168;21.296;2023-11-19T06:54:23;44.42;;;12.90;;
55063;SDS011;40963;52.168;21.296;2023-11-19T06:56:49;22.30;;;10.65;;
55063;SDS011;40963;52.168;21.296;2023-11-19T06:59:14;21.85;;;10.02;;
55063;SDS011;40963;52.168;21.296;2023-11-19T07:01:40;22.77;;;10.18;;
55063;SDS011;40963;52.168;21.296;2023-11-19T07:04:10;24.13;;;10.25;;
55063;SDS011;40963;52.168;21.296;2023-11-19T07:06:38;21.60;;;9.65;;
55063;SDS011;40963;52.168;21.296;2023-11-19T07:09:06;21.98;;;9.68;;
55063;SDS011;40963;52.168;21.296;2023-11-19T07:11:41;19.17;;;7.85;;
55063;SDS011;40963;52.168;21.296;2023-11-19T07:14:07;21.25;;;9.57;;
55063;SDS011;40963;52.168;21.296;2023-11-19T07:16:33;28.77;;;11.73;;
55063;SDS011;40963;52.168;21.296;2023-11-19T07:19:08;18.35;;;9.45;;
55063;SDS011;40963;52.168;21.296;2023-11-19T07:21:34;22.98;;;9.48;;
55063;SDS011;40963;52.168;21.296;2023-11-19T07:24:04;21.55;;;9.07;;
55063;SDS011;40963;52.168;21.296;2023-11-19T07:26:30;20.60;;;9.63;;
55063;SDS011;40963;52.168;21.296;2023-11-19T07:28:56;20.83;;;9.20;;
55063;SDS011;40963;52.168;21.296;2023-11-19T07:31:22;24.52;;;9.90;;
55063;SDS011;40963;52.168;21.296;2023-11-19T07:33:48;18.75;;;8.45;;
55063;SDS011;40963;52.168;21.296;2023-11-19T07:36:14;19.65;;;9.38;;
55063;SDS011;40963;52.168;21.296;2023-11-19T07:38:40;19.33;;;9.10;;
55063;SDS011;40963;52.168;21.296;2023-11-19T07:41:05;19.20;;;7.80;;
55063;SDS011;40963;52.168;21.296;2023-11-19T07:43:32;17.38;;;8.15;;
55063;SDS011;40963;52.168;21.296;2023-11-19T07:45:58;22.15;;;7.15;;
55063;SDS011;40963;52.168;21.296;2023-11-19T07:48:24;16.70;;;8.35;;
55063;SDS011;40963;52.168;21.296;2023-11-19T07:50:51;20.58;;;8.10;;
55063;SDS011;40963;52.168;21.296;2023-11-19T07:53:18;18.20;;;8.52;;
55063;SDS011;40963;52.168;21.296;2023-11-19T07:55:44;20.85;;;8.30;;
55063;SDS011;40963;52.168;21.296;2023-11-19T07:58:10;19.42;;;7.75;;
55063;SDS011;40963;52.168;21.296;2023-11-19T08:00:36;18.48;;;7.28;;
55063;SDS011;40963;52.168;21.296;2023-11-19T08:03:02;16.00;;;7.35;;
55063;SDS011;40963;52.168;21.296;2023-11-19T08:05:29;15.63;;;6.43;;
55063;SDS011;40963;52.168;21.296;2023-11-19T08:07:55;12.07;;;7.00;;
55063;SDS011;40963;52.168;21.296;2023-11-19T08:10:22;20.63;;;6.78;;
55063;SDS011;40963;52.168;21.296;2023-11-19T08:12:47;15.07;;;7.35;;
55063;SDS011;40963;52.168;21.296;2023-11-19T08:15:13;14.10;;;7.25;;
55063;SDS011;40963;52.168;21.296;2023-11-19T08:17:39;17.38;;;7.07;;
55063;SDS011;40963;52.168;21.296;2023-11-19T08:20:04;18.63;;;8.02;;
55063;SDS011;40963;52.168;21.296;2023-11-19T08:22:35;17.70;;;7.13;;
55063;SDS011;40963;52.168;21.296;2023-11-19T08:25:01;11.43;;;5.57;;
55063;SDS011;40963;52.168;21.296;2023-11-19T08:27:26;16.08;;;7.25;;
55063;SDS011;40963;52.168;21.296;2023-11-19T08:29:55;15.07;;;7.05;;
55063;SDS011;40963;52.168;21.296;2023-11-19T08:32:24;15.98;;;7.32;;
55063;SDS011;40963;52.168;21.296;2023-11-19T08:34:50;17.33;;;7.40;;
55063;SDS011;40963;52.168;21.296;2023-11-19T08:37:16;12.93;;;6.72;;
55063;SDS011;40963;52.168;21.296;2023-11-19T08:39:49;16.10;;;6.50;;
55063;SDS011;40963;52.168;21.296;2023-11-19T08:42:18;20.60;;;6.82;;
55063;SDS011;40963;52.168;21.296;2023-11-19T08:44:44;14.98;;;6.15;;
55063;SDS011;40963;52.168;21.296;2023-11-19T08:47:15;14.65;;;7.80;;
55063;SDS011;40963;52.168;21.296;2023-11-19T08:49:42;13.10;;;6.13;;
55063;SDS011;40963;52.168;21.296;2023-11-19T08:52:09;10.30;;;5.97;;
55063;SDS011;40963;52.168;21.296;2023-11-19T08:54:35;10.65;;;6.97;;
55063;SDS011;40963;52.168;21.296;2023-11-19T08:57:07;19.63;;;7.45;;
55063;SDS011;40963;52.168;21.296;2023-11-19T08:59:33;13.15;;;6.78;;
55063;SDS011;40963;52.168;21.296;2023-11-19T09:01:59;14.55;;;6.85;;
55063;SDS011;40963;52.168;21.296;2023-11-19T09:04:25;16.52;;;6.78;;
55063;SDS011;40963;52.168;21.296;2023-11-19T09:06:50;12.20;;;6.78;;
55063;SDS011;40963;52.168;21.296;2023-11-19T09:09:16;11.90;;;6.85;;
55063;SDS011;40963;52.168;21.296;2023-11-19T09:11:42;21.20;;;8.32;;
55063;SDS011;40963;52.168;21.296;2023-11-19T09:14:07;19.05;;;7.55;;
55063;SDS011;40963;52.168;21.296;2023-11-19T09:16:33;13.38;;;6.30;;
55063;SDS011;40963;52.168;21.296;2023-11-19T09:18:59;14.40;;;6.28;;
55063;SDS011;40963;52.168;21.296;2023-11-19T09:21:25;14.18;;;7.43;;
55063;SDS011;40963;52.168;21.296;2023-11-19T09:23:51;13.80;;;7.57;;
55063;SDS011;40963;52.168;21.296;2023-11-19T09:26:18;15.13;;;6.78;;
55063;SDS011;40963;52.168;21.296;2023-11-19T09:28:44;16.05;;;6.55;;
55063;SDS011;40963;52.168;21.296;2023-11-19T09:31:16;17.00;;;7.10;;
55063;SDS011;40963;52.168;21.296;2023-11-19T09:33:43;10.15;;;5.75;;
55063;SDS011;40963;52.168;21.296;2023-11-19T09:36:09;19.83;;;7.75;;
55063;SDS011;40963;52.168;21.296;2023-11-19T09:38:38;14.00;;;7.78;;
55063;SDS011;40963;52.168;21.296;2023-11-19T09:41:07;12.93;;;6.18;;
55063;SDS011;40963;52.168;21.296;2023-11-19T09:43:35;12.43;;;6.63;;
55063;SDS011;40963;52.168;21.296;2023-11-19T09:46:07;14.40;;;7.45;;
55063;SDS011;40963;52.168;21.296;2023-11-19T09:48:38;19.10;;;9.25;;
55063;SDS011;40963;52.168;21.296;2023-11-19T09:51:07;15.55;;;7.93;;
55063;SDS011;40963;52.168;21.296;2023-11-19T09:53:34;13.00;;;6.82;;
55063;SDS011;40963;52.168;21.296;2023-11-19T09:56:01;15.55;;;7.05;;
55063;SDS011;40963;52.168;21.296;2023-11-19T09:58:28;15.00;;;7.72;;
55063;SDS011;40963;52.168;21.296;2023-11-19T10:00:54;16.60;;;6.78;;
55063;SDS011;40963;52.168;21.296;2023-11-19T10:03:20;12.82;;;6.30;;
55063;SDS011;40963;52.168;21.296;2023-11-19T10:05:48;16.90;;;7.40;;
55063;SDS011;40963;52.168;21.296;2023-11-19T10:08:13;19.52;;;8.80;;
55063;SDS011;40963;52.168;21.296;2023-11-19T10:10:39;15.65;;;8.10;;
55063;SDS011;40963;52.168;21.296;2023-11-19T10:13:05;20.13;;;8.55;;
55063;SDS011;40963;52.168;21.296;2023-11-19T10:15:35;13.57;;;7.57;;
55063;SDS011;40963;52.168;21.296;2023-11-19T10:18:02;15.43;;;7.50;;
55063;SDS011;40963;52.168;21.296;2023-11-19T10:20:37;13.10;;;7.18;;
55063;SDS011;40963;52.168;21.296;2023-11-19T10:23:05;17.23;;;7.65;;
55063;SDS011;40963;52.168;21.296;2023-11-19T10:25:31;19.25;;;9.25;;
55063;SDS011;40963;52.168;21.296;2023-11-19T10:27:58;18.58;;;8.15;;
55063;SDS011;40963;52.168;21.296;2023-11-19T10:30:25;17.33;;;7.10;;
55063;SDS011;40963;52.168;21.296;2023-11-19T10:33:16;14.13;;;6.82;;
55063;SDS011;40963;52.168;21.296;2023-11-19T10:35:52;18.38;;;7.40;;
55063;SDS011;40963;52.168;21.296;2023-11-19T10:38:19;18.05;;;7.93;;
55063;SDS011;40963;52.168;21.296;2023-11-19T10:40:47;24.20;;;8.27;;
55063;SDS011;40963;52.168;21.296;2023-11-19T10:43:12;16.45;;;7.82;;
55063;SDS011;40963;52.168;21.296;2023-11-19T10:45:39;20.95;;;7.40;;
55063;SDS011;40963;52.168;21.296;2023-11-19T10:48:05;14.13;;;7.60;;
55063;SDS011;40963;52.168;21.296;2023-11-19T10:50:35;17.73;;;8.43;;
55063;SDS011;40963;52.168;21.296;2023-11-19T10:53:02;21.20;;;8.75;;
55063;SDS011;40963;52.168;21.296;2023-11-19T10:55:30;17.83;;;8.65;;
55063;SDS011;40963;52.168;21.296;2023-11-19T10:57:58;19.27;;;9.52;;
55063;SDS011;40963;52.168;21.296;2023-11-19T11:00:26;16.67;;;8.13;;
55063;SDS011;40963;52.168;21.296;2023-11-19T11:03:00;14.43;;;7.38;;
55063;SDS011;40963;52.168;21.296;2023-11-19T11:05:27;17.67;;;8.50;;
55063;SDS011;40963;52.168;21.296;2023-11-19T11:07:57;16.27;;;7.65;;
55063;SDS011;40963;52.168;21.296;2023-11-19T11:10:25;19.83;;;8.27;;
55063;SDS011;40963;52.168;21.296;2023-11-19T11:12:51;20.27;;;9.02;;
55063;SDS011;40963;52.168;21.296;2023-11-19T11:15:24;15.35;;;8.50;;
55063;SDS011;40963;52.168;21.296;2023-11-19T11:17:55;15.70;;;8.13;;
55063;SDS011;40963;52.168;21.296;2023-11-19T11:20:27;12.88;;;7.45;;
55063;SDS011;40963;52.168;21.296;2023-11-19T11:39:33;27.00;;;14.43;;
55063;SDS011;40963;52.168;21.296;2023-11-19T11:55:23;12.90;;;6.68;;
55063;SDS011;40963;52.168;21.296;2023-11-19T11:57:53;17.48;;;8.95;;
55063;SDS011;40963;52.168;21.296;2023-11-19T12:02:54;17.00;;;8.15;;
55063;SDS011;40963;52.168;21.296;2023-11-19T12:05:25;15.27;;;7.68;;
55063;SDS011;40963;52.168;21.296;2023-11-19T12:08:00;16.33;;;8.45;;
55063;SDS011;40963;52.168;21.296;2023-11-19T12:10:31;11.52;;;7.25;;
55063;SDS011;40963;52.168;21.296;2023-11-19T12:13:00;18.52;;;9.45;;
55063;SDS011;40963;52.168;21.296;2023-11-19T12:15:26;17.23;;;7.60;;
55063;SDS011;40963;52.168;21.296;2023-11-19T12:17:53;17.23;;;7.57;;
55063;SDS011;40963;52.168;21.296;2023-11-19T12:20:23;22.80;;;9.98;;
55063;SDS011;40963;52.168;21.296;2023-11-19T12:22:50;16.33;;;7.63;;
55063;SDS011;40963;52.168;21.296;2023-11-19T12:25:17;26.63;;;10.40;;
55063;SDS011;40963;52.168;21.296;2023-11-19T12:27:45;17.60;;;8.52;;
55063;SDS011;40963;52.168;21.296;2023-11-19T12:30:17;16.15;;;8.05;;
55063;SDS011;40963;52.168;21.296;2023-11-19T12:32:46;15.32;;;7.05;;
55063;SDS011;40963;52.168;21.296;2023-11-19T12:35:12;24.60;;;11.70;;
55063;SDS011;40963;52.168;21.296;2023-11-19T12:37:45;27.35;;;10.55;;
55063;SDS011;40963;52.168;21.296;2023-11-19T12:40:12;22.83;;;9.30;;
55063;SDS011;40963;52.168;21.296;2023-11-19T12:42:53;19.45;;;8.43;;
55063;SDS011;40963;52.168;21.296;2023-11-19T12:45:20;27.25;;;12.30;;
55063;SDS011;40963;52.168;21.296;2023-11-19T12:47:47;19.45;;;8.77;;
55063;SDS011;40963;52.168;21.296;2023-11-19T12:50:14;22.90;;;9.48;;
55063;SDS011;40963;52.168;21.296;2023-11-19T12:52:42;19.13;;;8.27;;
55063;SDS011;40963;52.168;21.296;2023-11-19T12:55:29;17.05;;;7.68;;
55063;SDS011;40963;52.168;21.296;2023-11-19T12:57:55;19.77;;;9.80;;
55063;SDS011;40963;52.168;21.296;2023-11-19T13:00:23;17.35;;;8.65;;
55063;SDS011;40963;52.168;21.296;2023-11-19T13:02:54;19.30;;;8.07;;
55063;SDS011;40963;52.168;21.296;2023-11-19T13:07:48;17.95;;;8.60;;
55063;SDS011;40963;52.168;21.296;2023-11-19T13:10:13;21.25;;;8.27;;
55063;SDS011;40963;52.168;21.296;2023-11-19T13:12:40;21.90;;;8.07;;
55063;SDS011;40963;52.168;21.296;2023-11-19T13:15:06;16.67;;;7.57;;
55063;SDS011;40963;52.168;21.296;2023-11-19T13:17:31;15.95;;;7.85;;
55063;SDS011;40963;52.168;21.296;2023-11-19T13:19:57;22.60;;;9.32;;
55063;SDS011;40963;52.168;21.296;2023-11-19T13:22:23;27.92;;;10.60;;
55063;SDS011;40963;52.168;21.296;2023-11-19T13:24:48;21.77;;;8.65;;
55063;SDS011;40963;52.168;21.296;2023-11-19T13:27:14;19.48;;;9.88;;
55063;SDS011;40963;52.168;21.296;2023-11-19T13:29:40;17.48;;;8.57;;
55063;SDS011;40963;52.168;21.296;2023-11-19T13:32:06;23.90;;;10.88;;
55063;SDS011;40963;52.168;21.296;2023-11-19T13:34:31;23.00;;;9.30;;
55063;SDS011;40963;52.168;21.296;2023-11-19T13:37:00;23.05;;;10.02;;
55063;SDS011;40963;52.168;21.296;2023-11-19T13:39:26;15.88;;;7.55;;
55063;SDS011;40963;52.168;21.296;2023-11-19T13:41:51;13.00;;;7.50;;
55063;SDS011;40963;52.168;21.296;2023-11-19T13:44:17;15.70;;;8.25;;
55063;SDS011;40963;52.168;21.296;2023-11-19T13:46:46;21.52;;;9.15;;
55063;SDS011;40963;52.168;21.296;2023-11-19T13:49:12;20.40;;;9.48;;
55063;SDS011;40963;52.168;21.296;2023-11-19T13:51:37;15.27;;;9.10;;
55063;SDS011;40963;52.168;21.296;2023-11-19T13:54:03;16.80;;;8.85;;
55063;SDS011;40963;52.168;21.296;2023-11-19T13:56:29;17.38;;;8.00;;
55063;SDS011;40963;52.168;21.296;2023-11-19T13:58:54;25.40;;;9.20;;
55063;SDS011;40963;52.168;21.296;2023-11-19T14:01:20;22.60;;;9.95;;
55063;SDS011;40963;52.168;21.296;2023-11-19T14:03:45;19.30;;;8.75;;
55063;SDS011;40963;52.168;21.296;2023-11-19T14:06:11;16.05;;;9.27;;
55063;SDS011;40963;52.168;21.296;2023-11-19T14:08:37;25.35;;;10.93;;
55063;SDS011;40963;52.168;21.296;2023-11-19T14:11:03;27.40;;;12.50;;
55063;SDS011;40963;52.168;21.296;2023-11-19T14:13:29;24.92;;;11.38;;
55063;SDS011;40963;52.168;21.296;2023-11-19T14:15:56;23.33;;;10.55;;
55063;SDS011;40963;52.168;21.296;2023-11-19T14:18:21;19.52;;;8.63;;
55063;SDS011;40963;52.168;21.296;2023-11-19T14:20:48;25.17;;;9.95;;
55063;SDS011;40963;52.168;21.296;2023-11-19T14:23:13;32.50;;;12.07;;
55063;SDS011;40963;52.168;21.296;2023-11-19T14:25:39;27.77;;;11.52;;
55063;SDS011;40963;52.168;21.296;2023-11-19T14:28:04;28.48;;;11.23;;
55063;SDS011;40963;52.168;21.296;2023-11-19T14:30:30;25.35;;;11.35;;
55063;SDS011;40963;52.168;21.296;2023-11-19T14:32:56;35.25;;;14.52;;
55063;SDS011;40963;52.168;21.296;2023-11-19T14:35:21;26.23;;;12.95;;
55063;SDS011;40963;52.168;21.296;2023-11-19T14:37:47;36.25;;;12.85;;
55063;SDS011;40963;52.168;21.296;2023-11-19T14:40:13;25.88;;;11.60;;
55063;SDS011;40963;52.168;21.296;2023-11-19T14:42:39;22.52;;;10.48;;
55063;SDS011;40963;52.168;21.296;2023-11-19T14:45:05;42.20;;;15.38;;
55063;SDS011;40963;52.168;21.296;2023-11-19T14:47:32;30.02;;;13.20;;
55063;SDS011;40963;52.168;21.296;2023-11-19T14:49:57;26.52;;;12.35;;